Time;durP1;ratioP1;P1;durP2;ratioP2;P2;SDS_P1;SDS_P2;PMS_P1;PMS_P2;Temp;Humidity;BMP_temperature;BMP_pressure;BME280_temperature;BME280_humidity;BME280_pressure;Samples;Min_cycle;Max_cycle;Signal;HPM_P1;HPM_P2
2021/09/11 00:02:40;;;;;;;31.67;21.30;;;;;;;9.80;77.27;99079.69;2286542;78;20999;-79
2021/09/11 00:05:40;;;;;;;34.00;20.63;;;;;;;9.77;77.37;99082.23;2283832;78;20982;-80
2021/09/11 00:08:41;;;;;;;36.50;21.00;;;;;;;9.76;77.36;99079.60;2292671;78;21372;-79
2021/09/11 00:11:41;;;;;;;37.60;21.43;;;;;;;9.79;77.61;99080.53;2289650;77;20929;-80
2021/09/11 00:14:42;;;;;;;31.57;19.90;;;;;;;9.76;77.44;99078.30;2281616;78;20956;-80
2021/09/11 00:17:42;;;;;;;33.27;19.63;;;;;;;9.72;77.57;99073.88;2276782;78;20929;-79
2021/09/11 00:20:43;;;;;;;31.43;19.97;;;;;;;9.68;77.62;99072.06;2283806;77;20984;-79
2021/09/11 00:23:45;;;;;;;34.63;21.00;;;;;;;9.65;77.69;99072.00;2294320;78;21185;-80
2021/09/11 00:26:45;;;;;;;30.50;19.63;;;;;;;9.60;77.70;99062.80;2279013;77;20951;-79
2021/09/11 00:29:46;;;;;;;28.53;19.57;;;;;;;9.60;77.75;99064.09;2279726;78;21356;-79
2021/09/11 00:32:46;;;;;;;30.37;19.40;;;;;;;9.60;77.68;99059.31;2270203;77;21395;-79
2021/09/11 00:35:47;;;;;;;30.50;19.63;;;;;;;9.60;77.89;99058.01;2267684;77;20994;-79
2021/09/11 00:38:47;;;;;;;28.90;19.37;;;;;;;9.65;77.69;99057.25;2282348;77;20933;-79
2021/09/11 00:41:48;;;;;;;32.33;20.40;;;;;;;9.66;77.86;99052.48;2291510;77;20940;-79
2021/09/11 00:44:48;;;;;;;32.57;20.17;;;;;;;9.64;77.92;99054.19;2287611;77;20947;-79
2021/09/11 00:47:49;;;;;;;33.83;20.70;;;;;;;9.58;78.07;99053.64;2289840;77;21321;-79
2021/09/11 00:50:49;;;;;;;30.83;19.83;;;;;;;9.57;78.13;99054.92;2284883;78;21323;-79
2021/09/11 00:53:50;;;;;;;35.43;19.23;;;;;;;9.57;78.25;99057.52;2270015;77;20963;-79
2021/09/11 00:56:51;;;;;;;36.33;20.27;;;;;;;9.54;78.14;99054.86;2281096;77;21006;-79
2021/09/11 00:59:51;;;;;;;27.97;19.23;;;;;;;9.56;78.40;99059.67;2272377;77;20983;-79
2021/09/11 01:02:52;;;;;;;31.37;20.43;;;;;;;9.56;78.26;99060.55;2267671;77;20960;-80
2021/09/11 01:05:52;;;;;;;29.27;19.80;;;;;;;9.49;78.01;99057.34;2260677;78;20936;-79
2021/09/11 01:08:53;;;;;;;31.43;19.73;;;;;;;9.47;78.03;99051.65;2266369;77;21356;-79
2021/09/11 01:11:53;;;;;;;33.43;18.43;;;;;;;9.44;78.13;99051.16;2269050;77;20951;-79
2021/09/11 01:14:54;;;;;;;27.77;20.00;;;;;;;9.39;78.03;99052.80;2261641;77;20925;-79
2021/09/11 01:17:54;;;;;;;26.00;17.83;;;;;;;9.37;78.25;99057.11;2273933;78;20944;-79
2021/09/11 01:20:55;;;;;;;28.27;18.43;;;;;;;9.33;77.87;99059.62;2255032;77;20947;-79
2021/09/11 01:23:55;;;;;;;28.27;18.53;;;;;;;9.29;77.84;99053.47;2272607;78;20960;-79
2021/09/11 01:26:55;;;;;;;26.37;18.83;;;;;;;9.27;78.10;99052.55;2289343;78;21340;-80
2021/09/11 01:29:56;;;;;;;30.60;19.43;;;;;;;9.26;78.33;99055.59;2290084;77;20940;-79
2021/09/11 01:32:57;;;;;;;34.37;18.73;;;;;;;9.26;78.62;99054.28;2268892;78;20971;-79
2021/09/11 01:35:57;;;;;;;26.67;19.97;;;;;;;9.26;78.73;99051.67;2292189;78;20956;-79
2021/09/11 01:38:58;;;;;;;29.87;19.07;;;;;;;9.26;78.72;99053.41;2260361;78;20958;-79
2021/09/11 01:41:58;;;;;;;26.63;18.60;;;;;;;9.24;78.61;99051.20;2257396;78;20972;-79
2021/09/11 01:44:59;;;;;;;32.97;19.27;;;;;;;9.21;78.61;99051.13;2258197;77;20967;-79
2021/09/11 01:47:59;;;;;;;31.77;18.23;;;;;;;9.16;78.72;99048.86;2296537;77;21336;-78
2021/09/11 01:51:00;;;;;;;25.33;17.57;;;;;;;9.12;78.51;99049.64;2277116;77;21324;-79
2021/09/11 01:54:00;;;;;;;31.10;19.90;;;;;;;9.08;78.68;99050.42;2262726;77;20971;-79
2021/09/11 01:57:01;;;;;;;27.10;17.63;;;;;;;9.05;78.55;99049.94;2270544;77;20917;-79
2021/09/11 02:00:01;;;;;;;30.87;18.33;;;;;;;9.05;78.80;99047.75;2290176;77;20955;-79
2021/09/11 02:03:02;;;;;;;24.93;17.30;;;;;;;9.08;79.12;99046.52;2284653;77;20984;-79
2021/09/11 02:06:02;;;;;;;31.13;18.73;;;;;;;9.07;79.32;99048.24;2250663;78;20978;-79
2021/09/11 02:09:03;;;;;;;35.30;19.60;;;;;;;9.05;79.33;99051.66;2270742;78;21332;-79
2021/09/11 02:12:04;;;;;;;31.47;19.57;;;;;;;9.04;79.51;99046.88;2265316;78;20936;-79
2021/09/11 02:15:04;;;;;;;22.50;17.23;;;;;;;9.02;79.31;99047.27;2285284;77;20991;-79
2021/09/11 02:18:05;;;;;;;23.97;17.73;;;;;;;9.00;79.18;99048.08;2290064;78;20944;-78
2021/09/11 02:21:06;;;;;;;30.57;18.93;;;;;;;8.96;79.16;99047.56;2276750;78;20983;-79
2021/09/11 02:24:06;;;;;;;31.77;19.57;;;;;;;8.91;79.15;99052.25;2281508;78;21031;-79
2021/09/11 02:27:07;;;;;;;29.37;18.13;;;;;;;8.90;79.26;99045.70;2286282;78;20929;-80
2021/09/11 02:30:08;;;;;;;27.87;18.33;;;;;;;8.91;79.47;99050.95;2264451;78;21003;-79
2021/09/11 02:33:08;;;;;;;30.37;18.80;;;;;;;8.92;79.39;99052.70;2274861;78;20937;-79
2021/09/11 02:36:09;;;;;;;25.40;18.17;;;;;;;8.93;79.49;99049.25;2281198;78;20980;-79
2021/09/11 02:39:10;;;;;;;29.60;18.97;;;;;;;8.89;79.30;99050.45;2271568;78;20983;-79
2021/09/11 02:42:11;;;;;;;29.47;18.97;;;;;;;8.84;79.30;99051.66;2295130;77;20953;-79
2021/09/11 02:45:11;;;;;;;38.90;18.30;;;;;;;8.81;79.47;99046.38;2277372;78;21332;-80
2021/09/11 02:48:11;;;;;;;31.47;19.60;;;;;;;8.80;79.43;99049.83;2277559;77;21371;-79
2021/09/11 02:51:12;;;;;;;26.50;17.83;;;;;;;8.83;79.83;99049.90;2267489;77;21327;-79
2021/09/11 02:54:12;;;;;;;94.60;23.83;;;;;;;8.85;80.38;99046.91;2255185;77;20947;-79
2021/09/11 02:57:13;;;;;;;29.20;19.40;;;;;;;8.90;80.55;99050.48;2266473;78;20987;-79
2021/09/11 03:00:14;;;;;;;28.20;19.07;;;;;;;8.96;80.52;99048.86;2278781;77;21018;-79
2021/09/11 03:03:14;;;;;;;22.63;17.87;;;;;;;9.00;80.54;99054.59;2276456;78;21123;-79
2021/09/11 03:06:15;;;;;;;29.90;19.10;;;;;;;8.94;80.23;99050.13;2283966;77;20948;-79
2021/09/11 03:09:15;;;;;;;28.77;19.07;;;;;;;8.88;79.91;99050.00;2267465;78;20987;-79
2021/09/11 03:12:16;;;;;;;26.87;19.43;;;;;;;8.87;80.33;99050.42;2263664;78;20956;-79
2021/09/11 03:15:16;;;;;;;28.30;18.37;;;;;;;8.86;80.39;99049.97;2269090;78;20942;-78
2021/09/11 03:18:17;;;;;;;29.33;19.57;;;;;;;8.85;80.36;99052.11;2272396;77;21012;-80
2021/09/11 03:21:17;;;;;;;29.30;19.97;;;;;;;8.84;80.56;99049.05;2275477;77;20944;-79
2021/09/11 03:24:18;;;;;;;32.33;18.93;;;;;;;8.82;80.72;99050.74;2292445;78;21328;-79
2021/09/11 03:27:18;;;;;;;27.70;18.20;;;;;;;8.82;80.97;99054.65;2285832;77;20987;-79
2021/09/11 03:30:19;;;;;;;35.20;19.60;;;;;;;8.78;80.33;99046.31;2284205;77;20983;-79
2021/09/11 03:33:19;;;;;;;24.53;17.90;;;;;;;8.75;80.47;99046.25;2266925;78;20920;-79
2021/09/11 03:36:19;;;;;;;42.33;20.70;;;;;;;8.73;80.31;99046.64;2257520;77;20924;-79
2021/09/11 03:39:20;;;;;;;31.73;18.63;;;;;;;8.73;80.71;99049.23;2279377;77;20933;-79
2021/09/11 03:42:20;;;;;;;43.67;20.50;;;;;;;8.74;80.82;99046.22;2264405;77;21008;-79
2021/09/11 03:45:21;;;;;;;28.47;18.37;;;;;;;8.75;81.19;99038.44;2284024;77;20955;-79
2021/09/11 03:48:21;;;;;;;28.17;18.60;;;;;;;8.78;81.21;99037.20;2281027;77;20943;-79
2021/09/11 03:51:22;;;;;;;29.47;17.87;;;;;;;8.87;81.35;99034.80;2270089;78;20951;-79
2021/09/11 03:54:22;;;;;;;24.43;17.20;;;;;;;8.83;80.83;99031.67;2254393;77;20963;-78
2021/09/11 03:57:23;;;;;;;41.20;21.87;;;;;;;8.76;80.58;99026.31;2259278;78;21406;-78
2021/09/11 04:00:24;;;;;;;24.77;17.53;;;;;;;8.71;80.83;99030.53;2285227;77;21022;-79
2021/09/11 04:03:24;;;;;;;24.47;17.97;;;;;;;8.64;80.47;99032.09;2263990;77;22007;-79
2021/09/11 04:06:24;;;;;;;25.27;18.03;;;;;;;8.59;80.70;99029.38;2266844;77;21331;-79
2021/09/11 04:09:25;;;;;;;27.30;18.83;;;;;;;8.58;80.76;99028.05;2283681;78;21371;-80
2021/09/11 04:12:25;;;;;;;28.90;20.43;;;;;;;8.61;81.20;99026.81;2290346;77;20951;-79
2021/09/11 04:15:26;;;;;;;25.60;18.97;;;;;;;8.67;81.37;99025.69;2251702;77;20988;-79
2021/09/11 04:18:26;;;;;;;24.03;17.73;;;;;;;8.74;81.57;99022.37;2295931;77;20937;-79
2021/09/11 04:21:27;;;;;;;64.90;22.57;;;;;;;8.77;81.70;99023.73;2296249;77;20932;-79
2021/09/11 04:24:27;;;;;;;30.57;20.50;;;;;;;8.81;81.99;99023.38;2267440;78;20994;-80
2021/09/11 04:27:28;;;;;;;31.37;19.40;;;;;;;8.85;81.82;99023.48;2259045;78;21312;-79
2021/09/11 04:30:28;;;;;;;30.33;20.83;;;;;;;8.91;81.69;99026.21;2284284;77;20967;-80
2021/09/11 04:33:29;;;;;;;28.03;20.10;;;;;;;8.98;81.77;99027.22;2258782;77;20940;-79
2021/09/11 04:36:29;;;;;;;29.00;20.27;;;;;;;9.06;81.64;99029.56;2274586;77;20917;-79
2021/09/11 04:39:30;;;;;;;31.83;19.33;;;;;;;9.17;81.80;99031.08;2284593;77;21003;-78
2021/09/11 04:42:30;;;;;;;41.60;19.87;;;;;;;9.21;80.95;99032.90;2272628;78;21352;-79
2021/09/11 04:45:31;;;;;;;25.20;18.13;;;;;;;9.31;81.15;99038.75;2273439;77;20955;-79
2021/09/11 04:48:31;;;;;;;28.20;17.23;;;;;;;9.33;80.67;99036.17;2266406;77;20941;-79
2021/09/11 04:51:32;;;;;;;30.37;18.27;;;;;;;9.37;80.67;99040.17;2292429;78;20952;-78
2021/09/11 04:54:32;;;;;;;30.10;18.60;;;;;;;9.42;80.90;99034.63;2282004;77;20947;-78
2021/09/11 04:57:32;;;;;;;26.70;18.80;;;;;;;9.56;80.75;99038.83;2259323;78;20936;-78
2021/09/11 05:00:33;;;;;;;45.73;19.77;;;;;;;9.76;81.22;99039.20;2267392;78;21399;-79
2021/09/11 05:03:34;;;;;;;35.40;20.50;;;;;;;9.95;81.41;99037.36;2267503;77;21004;-79
2021/09/11 05:06:34;;;;;;;24.97;18.13;;;;;;;10.18;81.32;99045.58;2294292;77;21019;-79
2021/09/11 05:09:35;;;;;;;27.40;20.83;;;;;;;10.36;80.55;99049.82;2248469;77;20987;-79
2021/09/11 05:12:35;;;;;;;26.47;19.60;;;;;;;10.52;80.56;99050.54;2269960;78;20987;-79
2021/09/11 05:15:36;;;;;;;28.40;17.73;;;;;;;10.71;80.21;99047.77;2264828;78;21331;-78
2021/09/11 05:18:37;;;;;;;23.83;17.07;;;;;;;10.82;79.77;99040.97;2283505;78;20940;-79
2021/09/11 05:21:37;;;;;;;29.07;17.07;;;;;;;10.95;79.50;99042.02;2287703;77;20959;-79
2021/09/11 05:24:38;;;;;;;29.07;17.60;;;;;;;11.12;79.65;99041.80;2272797;77;20955;-80
2021/09/11 05:27:39;;;;;;;25.37;17.70;;;;;;;11.34;79.42;99040.36;2255566;77;20916;-79
2021/09/11 05:30:39;;;;;;;25.57;17.73;;;;;;;11.57;79.23;99032.78;2281236;78;21367;-80
2021/09/11 05:33:40;;;;;;;32.45;19.25;;;;;;;11.82;79.28;99039.17;2268688;78;20983;-79
2021/09/11 05:36:40;;;;;;;25.88;18.95;;;;;;;12.07;79.12;99036.35;2272570;77;20952;-80
2021/09/11 05:39:41;;;;;;;31.25;25.32;;;;;;;12.34;79.16;99037.05;2254872;77;21315;-81
2021/09/11 05:42:41;;;;;;;28.15;17.77;;;;;;;12.48;78.40;99038.03;2265711;78;21366;-79
2021/09/11 05:45:42;;;;;;;34.90;20.52;;;;;;;12.68;78.55;99034.23;2256573;77;20991;-79
2021/09/11 05:48:42;;;;;;;25.57;18.62;;;;;;;12.88;78.46;99035.23;2267955;77;20961;-79
2021/09/11 05:51:43;;;;;;;27.20;18.02;;;;;;;13.12;78.50;99044.99;2261987;77;20974;-79
2021/09/11 05:54:43;;;;;;;27.22;18.75;;;;;;;13.36;78.15;99038.58;2263447;78;21320;-79
2021/09/11 05:57:44;;;;;;;40.38;21.07;;;;;;;13.62;77.99;99037.78;2286144;77;20982;-79
2021/09/11 06:00:45;;;;;;;65.60;24.85;;;;;;;13.98;77.53;99045.77;2257433;77;20994;-79
2021/09/11 06:03:46;;;;;;;30.02;20.10;;;;;;;14.40;77.16;99040.53;2261663;78;20936;-79
2021/09/11 06:06:46;;;;;;;24.72;19.17;;;;;;;14.76;77.07;99039.68;2282496;77;20990;-80
2021/09/11 06:09:47;;;;;;;30.80;19.65;;;;;;;15.11;76.90;99036.95;2272863;78;20954;-80
2021/09/11 06:12:47;;;;;;;59.85;23.83;;;;;;;15.68;75.08;99037.65;2284160;77;21018;-79
2021/09/11 06:15:51;;;;;;;31.80;20.70;;;;;;;15.68;75.08;99037.65;2288528;78;21016;-80
2021/09/11 06:18:51;;;;;;;29.75;19.45;;;;;;;16.00;74.47;99044.91;2254389;78;20955;-80
2021/09/11 06:21:52;;;;;;;28.57;19.00;;;;;;;16.28;73.94;99041.63;2291203;78;20951;-80
2021/09/11 06:24:52;;;;;;;35.78;21.20;;;;;;;16.51;73.48;99041.02;2295898;77;21035;-80
2021/09/11 06:27:56;;;;;;;73.47;21.10;;;;;;;16.76;72.79;99043.02;2297448;77;21367;-79
2021/09/11 06:30:56;;;;;;;32.25;19.27;;;;;;;17.06;72.04;99044.90;2264821;77;20964;-79
2021/09/11 06:33:57;;;;;;;23.75;17.82;;;;;;;17.27;71.46;99049.05;2284703;77;20991;-80
2021/09/11 06:36:57;;;;;;;38.20;18.95;;;;;;;17.54;70.73;99049.20;2255072;77;20968;-80
2021/09/11 06:39:58;;;;;;;43.30;18.12;;;;;;;17.68;69.24;99049.47;2254824;77;21031;-80
2021/09/11 06:42:59;;;;;;;117.75;23.15;;;;;;;17.94;68.76;99046.91;2284508;77;20956;-80
2021/09/11 06:45:59;;;;;;;50.38;18.00;;;;;;;18.15;67.64;99047.91;2281147;77;21358;-80
2021/09/11 06:49:00;;;;;;;16.65;14.15;;;;;;;18.36;67.42;99047.60;2267536;78;20991;-80
2021/09/11 06:52:00;;;;;;;21.68;14.47;;;;;;;18.54;66.45;99050.84;2271003;78;20959;-80
2021/09/11 06:55:01;;;;;;;20.55;15.53;;;;;;;18.80;65.96;99048.64;2280451;78;20928;-80
2021/09/11 06:58:02;;;;;;;23.90;14.73;;;;;;;19.01;64.58;99046.92;2272205;78;20959;-80
2021/09/11 07:01:02;;;;;;;19.77;14.05;;;;;;;19.24;64.26;99051.80;2271312;77;21026;-80
2021/09/11 07:04:03;;;;;;;22.15;12.70;;;;;;;19.49;63.63;99044.69;2279256;77;20980;-79
2021/09/11 07:07:03;;;;;;;18.73;12.43;;;;;;;19.78;63.48;99046.74;2290757;77;20955;-80
2021/09/11 07:10:06;;;;;;;17.67;12.37;;;;;;;20.09;62.42;99048.27;2290688;78;20964;-80
2021/09/11 07:13:06;;;;;;;22.35;11.53;;;;;;;20.32;61.25;99037.55;2284042;77;21008;-80
2021/09/11 07:16:07;;;;;;;16.02;11.68;;;;;;;20.54;59.81;99035.72;2277081;78;20959;-80
2021/09/11 07:19:08;;;;;;;12.53;10.88;;;;;;;20.71;57.64;99036.16;2269721;78;20969;-80
2021/09/11 07:22:08;;;;;;;22.95;11.88;;;;;;;20.85;57.16;99036.69;2280510;78;20995;-80
2021/09/11 07:25:09;;;;;;;13.55;10.58;;;;;;;21.02;56.24;99036.23;2263931;78;20929;-80
2021/09/11 07:28:10;;;;;;;13.25;9.03;;;;;;;21.27;55.74;99031.16;2288231;77;20979;-79
2021/09/11 07:31:11;;;;;;;14.47;8.20;;;;;;;21.42;53.33;99036.48;2208744;80;20985;-80
2021/09/11 07:34:12;;;;;;;9.03;7.42;;;;;;;21.56;52.68;99028.98;2183234;80;21056;-81
2021/09/11 07:37:13;;;;;;;15.40;7.53;;;;;;;21.70;51.89;99038.77;2204590;80;20977;-81
2021/09/11 07:40:14;;;;;;;9.65;7.15;;;;;;;21.94;50.98;99034.49;2209895;80;20987;-80
2021/09/11 07:43:14;;;;;;;9.75;6.75;;;;;;;22.07;49.74;99037.67;2182624;80;21011;-80
2021/09/11 07:46:15;;;;;;;10.75;6.42;;;;;;;22.13;48.85;99032.16;2193914;80;21034;-81
2021/09/11 07:49:15;;;;;;;18.65;6.92;;;;;;;22.26;48.43;99038.81;2199282;80;21412;-80
2021/09/11 07:52:16;;;;;;;11.10;6.47;;;;;;;22.44;48.68;99040.01;2208048;80;21111;-79
2021/09/11 07:55:17;;;;;;;9.60;6.25;;;;;;;22.54;48.03;99035.69;2187150;80;20935;-80
2021/09/11 07:58:17;;;;;;;14.35;6.25;;;;;;;22.60;46.71;99035.95;2185684;80;20994;-80
2021/09/11 08:01:18;;;;;;;14.28;6.00;;;;;;;22.71;46.18;99043.56;2194547;80;21003;-80
2021/09/11 08:04:18;;;;;;;12.07;7.05;;;;;;;22.70;45.76;99037.83;2181631;80;20975;-79
2021/09/11 08:07:20;;;;;;;9.03;6.45;;;;;;;22.85;46.48;99035.55;2210429;80;20968;-78
2021/09/11 08:10:21;;;;;;;10.35;6.25;;;;;;;23.05;45.64;99039.30;2285172;78;20975;-80
2021/09/11 08:13:21;;;;;;;8.90;5.75;;;;;;;23.18;44.41;99032.61;2263463;77;20940;-79
2021/09/11 08:16:22;;;;;;;10.80;7.03;;;;;;;23.31;44.94;99045.88;2270991;78;20974;-80
2021/09/11 08:19:22;;;;;;;12.23;5.85;;;;;;;23.35;44.67;99039.52;2262468;77;20964;-79
2021/09/11 08:22:23;;;;;;;9.03;6.62;;;;;;;23.45;44.17;99034.75;2261976;78;20963;-79
2021/09/11 08:25:24;;;;;;;8.28;6.42;;;;;;;23.64;44.29;99037.16;2282419;77;20996;-80
2021/09/11 08:28:24;;;;;;;9.23;6.78;;;;;;;23.76;43.55;99031.83;2288866;77;20992;-79
2021/09/11 08:31:27;;;;;;;7.12;6.35;;;;;;;23.74;43.80;99032.35;2262961;77;20975;-80
2021/09/11 08:34:27;;;;;;;14.38;6.55;;;;;;;23.86;42.89;99033.20;2254429;78;20966;-80
2021/09/11 08:37:28;;;;;;;14.90;7.45;;;;;;;23.87;43.75;99033.61;2270172;78;21345;-79
2021/09/11 08:40:28;;;;;;;16.40;8.43;;;;;;;24.03;43.34;99028.08;2290606;78;20955;-78
2021/09/11 08:43:29;;;;;;;16.82;6.85;;;;;;;24.26;43.26;99028.95;2249059;78;20952;-79
2021/09/11 08:46:29;;;;;;;10.08;6.30;;;;;;;24.37;43.44;99019.64;2266671;78;20963;-79
2021/09/11 08:49:30;;;;;;;11.05;6.70;;;;;;;24.55;42.72;99020.67;2278998;77;20936;-79
2021/09/11 08:52:31;;;;;;;9.40;6.20;;;;;;;24.63;42.66;99019.88;2279658;77;20908;-79
2021/09/11 08:55:31;;;;;;;8.28;6.28;;;;;;;24.71;42.32;99015.09;2259891;78;20945;-78
2021/09/11 08:58:32;;;;;;;13.55;6.70;;;;;;;24.87;42.28;99014.42;2276882;78;20980;-79
2021/09/11 09:01:33;;;;;;;8.03;6.10;;;;;;;25.05;41.41;99013.66;2284019;77;21011;-80
2021/09/11 09:04:33;;;;;;;14.78;6.62;;;;;;;25.16;40.58;99011.88;2192506;80;20987;-80
2021/09/11 09:07:34;;;;;;;8.98;5.05;;;;;;;25.09;41.08;99004.10;2205560;80;20971;-79
2021/09/11 09:10:34;;;;;;;15.60;6.15;;;;;;;25.13;40.83;99003.97;2231924;79;20975;-80
2021/09/11 09:13:35;;;;;;;14.58;5.80;;;;;;;25.07;41.60;99002.44;2206042;81;20979;-80
2021/09/11 09:16:35;;;;;;;10.95;5.37;;;;;;;25.25;41.30;99004.31;2235835;79;20905;-79
2021/09/11 09:19:36;;;;;;;7.67;5.70;;;;;;;25.51;40.90;98998.24;2176256;81;20936;-80
2021/09/11 09:22:36;;;;;;;12.07;5.45;;;;;;;25.67;40.31;99007.31;2189325;80;21345;-80
2021/09/11 09:25:39;;;;;;;11.97;5.40;;;;;;;25.79;40.28;99005.88;2173568;80;20960;-79
2021/09/11 09:28:40;;;;;;;12.00;5.78;;;;;;;25.89;39.79;99008.03;2168356;80;21000;-80
2021/09/11 09:31:40;;;;;;;7.30;5.25;;;;;;;26.02;40.01;99009.20;2168575;80;21000;-80
2021/09/11 09:34:41;;;;;;;8.75;4.95;;;;;;;26.09;40.15;99005.77;2187955;80;21015;-80
2021/09/11 09:37:41;;;;;;;8.58;4.67;;;;;;;26.21;38.92;99004.30;2198792;80;20968;-79
2021/09/11 09:40:42;;;;;;;24.45;6.33;;;;;;;26.21;39.00;98999.81;2205286;80;21000;-79
2021/09/11 09:43:42;;;;;;;14.85;4.72;;;;;;;26.25;38.16;98995.18;2170298;80;21384;-79
2021/09/11 09:46:43;;;;;;;6.83;4.60;;;;;;;26.23;38.29;98994.39;2174097;80;20971;-79
2021/09/11 09:49:43;;;;;;;11.88;4.70;;;;;;;26.26;38.47;98988.89;2181169;80;20958;-80
2021/09/11 09:52:44;;;;;;;13.70;4.95;;;;;;;26.32;37.83;98986.80;2177880;80;21020;-80
2021/09/11 09:55:44;;;;;;;10.28;4.40;;;;;;;26.44;37.84;98992.48;2187836;80;20957;-79
2021/09/11 09:58:45;;;;;;;10.85;4.87;;;;;;;26.53;38.05;98987.53;2183678;80;21332;-80
2021/09/11 10:01:49;;;;;;;7.17;4.95;;;;;;;26.70;37.71;98985.80;2203053;80;21407;-80
2021/09/11 10:04:47;;;;;;;6.83;4.73;;;;;;;26.68;36.99;98983.20;2184078;80;20983;-79
2021/09/11 10:07:48;;;;;;;6.80;4.45;;;;;;;26.62;37.09;98983.05;2178772;80;20944;-79
2021/09/11 10:10:49;;;;;;;8.40;4.55;;;;;;;26.66;36.65;98984.63;2266470;77;21027;-79
2021/09/11 10:13:50;;;;;;;7.12;4.83;;;;;;;26.78;36.89;98984.46;2272842;77;20966;-81
2021/09/11 10:16:50;;;;;;;9.38;4.45;;;;;;;26.78;36.42;98982.25;2284381;77;20960;-80
2021/09/11 10:19:51;;;;;;;6.05;4.33;;;;;;;26.79;36.66;98982.65;2275981;78;20995;-79
2021/09/11 10:22:51;;;;;;;5.87;4.45;;;;;;;26.92;36.62;98983.30;2249791;78;20944;-79
2021/09/11 10:25:52;;;;;;;9.15;4.50;;;;;;;26.99;35.99;98983.88;2262027;78;20923;-80
2021/09/11 10:28:53;;;;;;;5.58;4.30;;;;;;;27.05;36.02;98979.53;2274568;78;20932;-80
2021/09/11 10:31:53;;;;;;;11.48;5.00;;;;;;;27.12;35.72;98975.58;2292154;77;21094;-80
2021/09/11 10:34:54;;;;;;;8.18;4.25;;;;;;;27.05;35.73;98975.52;2194604;80;20944;-81
2021/09/11 10:37:54;;;;;;;6.75;4.17;;;;;;;27.12;34.56;98978.26;2181380;80;21118;-79
2021/09/11 10:40:55;;;;;;;10.48;4.10;;;;;;;27.14;35.08;98968.33;2187661;80;21332;-79
2021/09/11 10:43:55;;;;;;;5.50;4.28;;;;;;;27.27;35.16;98971.21;2168343;80;21413;-81
2021/09/11 10:46:56;;;;;;;5.28;3.77;;;;;;;27.22;34.50;98974.14;2168309;80;21035;-79
2021/09/11 10:49:57;;;;;;;6.80;3.87;;;;;;;27.27;34.84;98970.73;2193246;80;21316;-82
2021/09/11 10:52:58;;;;;;;5.62;3.90;;;;;;;27.29;34.93;98970.18;2207658;79;21339;-80
2021/09/11 10:55:59;;;;;;;5.70;4.35;;;;;;;27.39;34.90;98976.38;2209448;80;20964;-80
2021/09/11 10:58:59;;;;;;;8.40;4.35;;;;;;;27.41;34.25;98974.00;2196839;80;20983;-80
2021/09/11 11:02:00;;;;;;;9.88;4.33;;;;;;;27.43;34.04;98973.45;2192039;80;21039;-81
2021/09/11 11:05:00;;;;;;;7.25;4.20;;;;;;;27.52;34.33;98974.75;2191228;80;20994;-79
2021/09/11 11:08:01;;;;;;;8.13;4.28;;;;;;;27.42;34.16;98971.72;2196233;80;20976;-80
2021/09/11 11:11:02;;;;;;;4.83;3.70;;;;;;;27.49;33.58;98970.91;2195108;78;21000;-80
2021/09/11 11:14:02;;;;;;;8.75;4.05;;;;;;;27.52;33.65;98959.53;2202543;80;21029;-81
2021/09/11 11:17:03;;;;;;;8.40;4.10;;;;;;;27.59;33.25;98965.42;2209197;80;20960;-79
2021/09/11 11:20:03;;;;;;;5.45;4.05;;;;;;;27.60;33.80;98961.35;2287745;78;20928;-79
2021/09/11 11:23:04;;;;;;;8.33;4.42;;;;;;;27.69;33.52;98960.45;2255940;77;21002;-80
2021/09/11 11:26:05;;;;;;;7.00;3.77;;;;;;;27.78;31.82;98951.91;2275224;77;21051;-81
2021/09/11 11:29:05;;;;;;;7.80;4.15;;;;;;;27.66;31.99;98948.08;2279518;77;20924;-79
2021/09/11 11:32:06;;;;;;;11.45;4.30;;;;;;;27.70;32.90;98948.77;2287598;78;20976;-79
2021/09/11 11:35:06;;;;;;;5.78;3.90;;;;;;;27.84;33.04;98947.55;2195825;80;20956;-80
2021/09/11 11:38:07;;;;;;;10.90;3.70;;;;;;;27.96;32.99;98940.61;2179644;80;20968;-79
2021/09/11 11:41:07;;;;;;;10.40;4.40;;;;;;;28.00;32.77;98940.83;2222346;79;21007;-79
2021/09/11 11:44:08;;;;;;;6.08;3.83;;;;;;;28.00;33.23;98937.66;2241504;79;20966;-80
2021/09/11 11:47:08;;;;;;;4.40;3.70;;;;;;;27.97;32.91;98932.48;2229819;79;20955;-78
2021/09/11 11:50:09;;;;;;;7.92;3.70;;;;;;;28.00;31.97;98932.30;2252408;79;21054;-80
2021/09/11 11:53:09;;;;;;;7.65;3.95;;;;;;;27.93;32.42;98930.06;2240405;79;20954;-79
2021/09/11 11:56:10;;;;;;;5.83;3.77;;;;;;;27.92;32.42;98930.53;2238434;79;21409;-80
2021/09/11 11:59:10;;;;;;;9.05;4.10;;;;;;;27.97;32.63;98922.22;2227463;79;20959;-80
2021/09/11 12:02:11;;;;;;;10.23;4.10;;;;;;;28.04;33.27;98925.80;2225502;79;21002;-80
2021/09/11 12:05:11;;;;;;;6.10;3.75;;;;;;;27.95;32.21;98928.16;2225031;79;20955;-81
2021/09/11 12:08:12;;;;;;;10.43;4.20;;;;;;;27.83;32.81;98918.52;2238009;79;20951;-81
2021/09/11 12:11:12;;;;;;;6.05;3.70;;;;;;;27.94;32.86;98923.27;2228647;79;21468;-80
2021/09/11 12:14:13;;;;;;;9.63;4.12;;;;;;;28.05;32.78;98918.62;2248078;79;21339;-80
2021/09/11 12:17:13;;;;;;;6.35;4.22;;;;;;;28.11;32.64;98922.28;2240654;79;20948;-79
2021/09/11 12:20:14;;;;;;;5.80;3.95;;;;;;;28.15;32.32;98915.78;2260958;77;20976;-81
2021/09/11 12:23:14;;;;;;;5.03;3.80;;;;;;;28.25;32.76;98921.03;2297669;77;20944;-80
2021/09/11 12:26:15;;;;;;;4.05;3.55;;;;;;;28.29;32.44;98915.88;2208590;80;21122;-80
2021/09/11 12:29:16;;;;;;;8.80;4.25;;;;;;;28.22;32.66;98918.49;2186302;81;20936;-79
2021/09/11 12:32:17;;;;;;;8.08;3.92;;;;;;;28.18;32.42;98912.44;2231085;79;21008;-80
2021/09/11 12:35:17;;;;;;;7.35;4.30;;;;;;;28.03;32.05;98909.31;2197777;81;20952;-80
2021/09/11 12:38:18;;;;;;;5.03;4.08;;;;;;;27.98;32.46;98910.53;2245000;79;21360;-79
2021/09/11 12:41:18;;;;;;;5.75;4.37;;;;;;;28.00;32.85;98901.92;2194680;80;20936;-80
2021/09/11 12:44:19;;;;;;;9.83;4.47;;;;;;;28.08;32.86;98913.07;2187756;80;20981;-79
2021/09/11 12:47:19;;;;;;;8.10;4.45;;;;;;;28.02;32.20;98908.06;2179305;80;20984;-79
2021/09/11 12:50:21;;;;;;;8.80;4.22;;;;;;;27.85;32.56;98910.38;2180769;80;20969;-79
2021/09/11 12:53:22;;;;;;;9.08;4.67;;;;;;;27.82;32.63;98903.37;2236869;79;20927;-80
2021/09/11 12:56:22;;;;;;;8.40;4.42;;;;;;;27.87;32.71;98897.75;2231678;79;21374;-79
2021/09/11 12:59:24;;;;;;;8.60;5.17;;;;;;;27.88;32.26;98899.48;2247506;79;20968;-79
2021/09/11 13:02:24;;;;;;;12.20;4.50;;;;;;;27.78;31.40;98890.23;2222862;79;20959;-79
2021/09/11 13:05:26;;;;;;;5.83;4.17;;;;;;;27.74;31.89;98893.53;2226108;79;20995;-80
2021/09/11 13:08:27;;;;;;;8.48;3.95;;;;;;;27.75;31.44;98892.61;2248034;78;20993;-80
2021/09/11 13:11:27;;;;;;;6.62;3.83;;;;;;;27.77;32.32;98888.50;2257932;78;20959;-80
2021/09/11 13:14:28;;;;;;;11.78;4.97;;;;;;;27.76;32.48;98884.09;2281471;78;20987;-80
2021/09/11 13:17:29;;;;;;;9.55;4.85;;;;;;;27.88;32.36;98877.54;2186751;80;20979;-80
2021/09/11 13:20:29;;;;;;;8.65;3.90;;;;;;;28.03;32.63;98881.63;2175030;80;20960;-80
2021/09/11 13:23:30;;;;;;;10.98;4.20;;;;;;;27.99;32.04;98878.73;2203167;80;21016;-79
2021/09/11 13:26:30;;;;;;;6.22;3.80;;;;;;;27.96;32.10;98873.55;2171494;80;21328;-81
2021/09/11 13:29:31;;;;;;;6.72;4.10;;;;;;;27.82;32.25;98879.23;2206084;80;20987;-79
2021/09/11 13:32:34;;;;;;;4.40;4.00;;;;;;;27.70;32.49;98872.34;2202431;80;21000;-81
2021/09/11 13:35:34;;;;;;;;;;;;;;;27.67;32.60;98872.05;2206444;80;20984;-80
2021/09/11 13:38:35;;;;;;;6.35;4.40;;;;;;;27.68;32.85;98873.77;2187698;80;20122;-80
2021/09/11 13:41:35;;;;;;;5.40;4.12;;;;;;;27.58;32.70;98871.19;2193439;80;20943;-80
2021/09/11 13:44:36;;;;;;;5.45;3.95;;;;;;;27.43;32.38;98872.92;2206484;80;21011;-80
2021/09/11 13:47:36;;;;;;;5.08;3.72;;;;;;;27.27;32.90;98868.91;2195428;80;20972;-80
2021/09/11 13:50:37;;;;;;;8.80;4.30;;;;;;;27.36;32.81;98865.31;2196751;80;20948;-80
2021/09/11 13:53:37;;;;;;;5.10;4.03;;;;;;;27.40;32.88;98866.40;2173640;80;21003;-79
2021/09/11 13:56:38;;;;;;;8.13;4.03;;;;;;;27.39;32.05;98862.47;2206122;80;21376;-81
2021/09/11 13:59:39;;;;;;;7.42;3.83;;;;;;;27.37;32.72;98863.02;2205797;80;20968;-79
2021/09/11 14:02:40;;;;;;;7.45;4.25;;;;;;;27.37;33.03;98863.89;2270449;77;21074;-79